!!! Benutzen Sie für Ihre Flugvorbereitung die offiziellen Quellen !!!

Metar:

EDQM 230950Z 34004KT 250V050 9999 FEW025 15/08 Q1023

QNH: 1023
Temperatur: 15
Dew Point : 8

 

METAR (decoded)